sensor_id;sensor_type;location;lat;lon;timestamp;P1;durP1;ratioP1;P2;durP2;ratioP2
850;SDS011;412;51.400;7.480;2023-05-02T00:00:31;20.83;;;18.63;;
850;SDS011;412;51.400;7.480;2023-05-02T00:02:59;20.17;;;18.07;;
850;SDS011;412;51.400;7.480;2023-05-02T00:05:25;21.13;;;19.03;;
850;SDS011;412;51.400;7.480;2023-05-02T00:07:51;21.97;;;19.70;;
850;SDS011;412;51.400;7.480;2023-05-02T00:10:17;21.80;;;19.40;;
850;SDS011;412;51.400;7.480;2023-05-02T00:12:43;22.50;;;20.10;;
850;SDS011;412;51.400;7.480;2023-05-02T00:15:09;21.63;;;19.10;;
850;SDS011;412;51.400;7.480;2023-05-02T00:17:35;22.30;;;19.20;;
850;SDS011;412;51.400;7.480;2023-05-02T00:20:01;22.70;;;19.87;;
850;SDS011;412;51.400;7.480;2023-05-02T00:22:30;22.10;;;19.80;;
850;SDS011;412;51.400;7.480;2023-05-02T00:24:56;22.67;;;20.40;;
850;SDS011;412;51.400;7.480;2023-05-02T00:27:22;20.77;;;18.77;;
850;SDS011;412;51.400;7.480;2023-05-02T00:29:48;22.57;;;20.17;;
850;SDS011;412;51.400;7.480;2023-05-02T00:32:16;22.33;;;19.30;;
850;SDS011;412;51.400;7.480;2023-05-02T00:34:42;21.43;;;19.23;;
850;SDS011;412;51.400;7.480;2023-05-02T00:37:08;22.53;;;19.17;;
850;SDS011;412;51.400;7.480;2023-05-02T00:39:34;23.50;;;19.80;;
850;SDS011;412;51.400;7.480;2023-05-02T00:42:00;19.43;;;16.90;;
850;SDS011;412;51.400;7.480;2023-05-02T00:44:27;24.33;;;19.17;;
850;SDS011;412;51.400;7.480;2023-05-02T00:46:53;24.50;;;20.03;;
850;SDS011;412;51.400;7.480;2023-05-02T00:49:19;26.70;;;21.13;;
850;SDS011;412;51.400;7.480;2023-05-02T00:51:45;23.27;;;20.90;;
850;SDS011;412;51.400;7.480;2023-05-02T00:54:11;26.00;;;21.63;;
850;SDS011;412;51.400;7.480;2023-05-02T00:56:39;23.57;;;20.97;;
850;SDS011;412;51.400;7.480;2023-05-02T00:59:05;25.10;;;22.13;;
850;SDS011;412;51.400;7.480;2023-05-02T01:01:39;22.23;;;19.93;;
850;SDS011;412;51.400;7.480;2023-05-02T01:07:08;21.77;;;19.47;;
850;SDS011;412;51.400;7.480;2023-05-02T01:13:03;23.50;;;20.07;;
850;SDS011;412;51.400;7.480;2023-05-02T01:15:35;23.47;;;20.07;;
850;SDS011;412;51.400;7.480;2023-05-02T01:18:03;25.23;;;21.83;;
850;SDS011;412;51.400;7.480;2023-05-02T01:20:30;24.83;;;22.13;;
850;SDS011;412;51.400;7.480;2023-05-02T01:23:02;26.13;;;22.50;;
850;SDS011;412;51.400;7.480;2023-05-02T01:28:20;25.77;;;23.00;;
850;SDS011;412;51.400;7.480;2023-05-02T01:31:14;29.17;;;23.93;;
850;SDS011;412;51.400;7.480;2023-05-02T01:33:40;30.50;;;24.27;;
850;SDS011;412;51.400;7.480;2023-05-02T01:36:08;28.03;;;23.20;;
850;SDS011;412;51.400;7.480;2023-05-02T01:38:35;28.57;;;23.03;;
850;SDS011;412;51.400;7.480;2023-05-02T01:41:03;30.93;;;25.63;;
850;SDS011;412;51.400;7.480;2023-05-02T01:43:34;28.17;;;23.90;;
850;SDS011;412;51.400;7.480;2023-05-02T01:46:02;32.27;;;24.47;;
850;SDS011;412;51.400;7.480;2023-05-02T01:48:30;32.50;;;24.90;;
850;SDS011;412;51.400;7.480;2023-05-02T01:50:57;30.93;;;25.20;;
850;SDS011;412;51.400;7.480;2023-05-02T01:53:24;30.00;;;24.90;;
850;SDS011;412;51.400;7.480;2023-05-02T01:55:52;31.43;;;24.97;;
850;SDS011;412;51.400;7.480;2023-05-02T01:58:20;29.27;;;24.90;;
850;SDS011;412;51.400;7.480;2023-05-02T02:00:46;30.53;;;24.73;;
850;SDS011;412;51.400;7.480;2023-05-02T02:03:13;30.37;;;24.00;;
850;SDS011;412;51.400;7.480;2023-05-02T02:05:40;32.60;;;25.63;;
850;SDS011;412;51.400;7.480;2023-05-02T02:08:07;33.00;;;25.63;;
850;SDS011;412;51.400;7.480;2023-05-02T02:10:39;32.97;;;26.40;;
850;SDS011;412;51.400;7.480;2023-05-02T02:13:17;33.60;;;25.60;;
850;SDS011;412;51.400;7.480;2023-05-02T02:15:49;31.13;;;25.77;;
850;SDS011;412;51.400;7.480;2023-05-02T02:18:20;32.93;;;24.83;;
850;SDS011;412;51.400;7.480;2023-05-02T02:20:50;34.43;;;27.27;;
850;SDS011;412;51.400;7.480;2023-05-02T02:23:18;33.00;;;25.10;;
850;SDS011;412;51.400;7.480;2023-05-02T02:25:46;33.07;;;25.70;;
850;SDS011;412;51.400;7.480;2023-05-02T02:28:14;35.83;;;26.30;;
850;SDS011;412;51.400;7.480;2023-05-02T02:30:40;37.80;;;28.33;;
850;SDS011;412;51.400;7.480;2023-05-02T02:33:06;35.60;;;26.97;;
850;SDS011;412;51.400;7.480;2023-05-02T02:35:36;40.20;;;29.47;;
850;SDS011;412;51.400;7.480;2023-05-02T02:38:10;41.27;;;30.87;;
850;SDS011;412;51.400;7.480;2023-05-02T02:41:00;41.73;;;30.47;;
850;SDS011;412;51.400;7.480;2023-05-02T02:48:49;48.20;;;33.00;;
850;SDS011;412;51.400;7.480;2023-05-02T02:54:12;44.53;;;30.50;;
850;SDS011;412;51.400;7.480;2023-05-02T02:57:12;42.10;;;30.23;;
850;SDS011;412;51.400;7.480;2023-05-02T02:59:41;37.97;;;28.97;;
850;SDS011;412;51.400;7.480;2023-05-02T03:02:17;38.20;;;27.00;;
850;SDS011;412;51.400;7.480;2023-05-02T03:04:46;35.40;;;26.67;;
850;SDS011;412;51.400;7.480;2023-05-02T03:07:16;37.80;;;28.03;;
850;SDS011;412;51.400;7.480;2023-05-02T03:09:43;36.13;;;26.23;;
850;SDS011;412;51.400;7.480;2023-05-02T03:12:10;37.13;;;26.33;;
850;SDS011;412;51.400;7.480;2023-05-02T03:14:36;33.00;;;25.63;;
850;SDS011;412;51.400;7.480;2023-05-02T03:17:03;35.27;;;25.00;;
850;SDS011;412;51.400;7.480;2023-05-02T03:19:28;34.00;;;24.23;;
850;SDS011;412;51.400;7.480;2023-05-02T03:21:54;31.00;;;23.40;;
850;SDS011;412;51.400;7.480;2023-05-02T03:24:20;30.73;;;22.60;;
850;SDS011;412;51.400;7.480;2023-05-02T03:26:46;33.43;;;22.43;;
850;SDS011;412;51.400;7.480;2023-05-02T03:29:12;29.30;;;21.63;;
850;SDS011;412;51.400;7.480;2023-05-02T03:31:39;27.73;;;21.97;;
850;SDS011;412;51.400;7.480;2023-05-02T03:34:05;27.70;;;20.80;;
850;SDS011;412;51.400;7.480;2023-05-02T03:36:31;27.83;;;20.83;;
850;SDS011;412;51.400;7.480;2023-05-02T03:38:56;28.07;;;21.03;;
850;SDS011;412;51.400;7.480;2023-05-02T03:41:22;29.30;;;21.70;;
850;SDS011;412;51.400;7.480;2023-05-02T03:43:49;28.57;;;21.63;;
850;SDS011;412;51.400;7.480;2023-05-02T03:46:15;28.03;;;20.73;;
850;SDS011;412;51.400;7.480;2023-05-02T03:48:41;28.37;;;21.73;;
850;SDS011;412;51.400;7.480;2023-05-02T03:51:07;29.40;;;20.10;;
850;SDS011;412;51.400;7.480;2023-05-02T03:53:34;29.80;;;19.50;;
850;SDS011;412;51.400;7.480;2023-05-02T03:56:00;25.70;;;20.40;;
850;SDS011;412;51.400;7.480;2023-05-02T03:58:26;28.17;;;20.77;;
850;SDS011;412;51.400;7.480;2023-05-02T04:00:52;24.50;;;19.43;;
850;SDS011;412;51.400;7.480;2023-05-02T04:03:19;26.50;;;20.07;;
850;SDS011;412;51.400;7.480;2023-05-02T04:05:45;23.77;;;18.20;;
850;SDS011;412;51.400;7.480;2023-05-02T04:08:11;27.00;;;18.67;;
850;SDS011;412;51.400;7.480;2023-05-02T04:10:37;25.30;;;18.57;;
850;SDS011;412;51.400;7.480;2023-05-02T04:13:03;26.17;;;21.40;;
850;SDS011;412;51.400;7.480;2023-05-02T04:15:32;26.20;;;19.33;;
850;SDS011;412;51.400;7.480;2023-05-02T04:17:57;24.80;;;19.20;;
850;SDS011;412;51.400;7.480;2023-05-02T04:20:23;21.93;;;17.57;;
850;SDS011;412;51.400;7.480;2023-05-02T04:22:49;22.50;;;16.97;;
850;SDS011;412;51.400;7.480;2023-05-02T04:25:15;22.17;;;16.83;;
850;SDS011;412;51.400;7.480;2023-05-02T04:27:41;21.67;;;17.30;;
850;SDS011;412;51.400;7.480;2023-05-02T04:30:07;20.63;;;16.17;;
850;SDS011;412;51.400;7.480;2023-05-02T04:32:36;20.77;;;16.03;;
850;SDS011;412;51.400;7.480;2023-05-02T04:35:02;22.37;;;17.60;;
850;SDS011;412;51.400;7.480;2023-05-02T04:37:28;21.73;;;18.07;;
850;SDS011;412;51.400;7.480;2023-05-02T04:39:54;22.93;;;18.10;;
850;SDS011;412;51.400;7.480;2023-05-02T04:42:20;25.50;;;18.20;;
850;SDS011;412;51.400;7.480;2023-05-02T04:44:47;18.00;;;15.87;;
850;SDS011;412;51.400;7.480;2023-05-02T04:47:13;22.10;;;15.87;;
850;SDS011;412;51.400;7.480;2023-05-02T04:49:38;17.60;;;15.00;;
850;SDS011;412;51.400;7.480;2023-05-02T04:52:05;20.13;;;15.87;;
850;SDS011;412;51.400;7.480;2023-05-02T04:54:33;21.93;;;16.13;;
850;SDS011;412;51.400;7.480;2023-05-02T04:56:59;18.73;;;16.63;;
850;SDS011;412;51.400;7.480;2023-05-02T04:59:28;20.07;;;15.00;;
850;SDS011;412;51.400;7.480;2023-05-02T05:01:54;19.30;;;15.50;;
850;SDS011;412;51.400;7.480;2023-05-02T05:04:21;17.10;;;14.47;;
850;SDS011;412;51.400;7.480;2023-05-02T05:06:46;19.03;;;15.93;;
850;SDS011;412;51.400;7.480;2023-05-02T05:09:13;20.70;;;16.50;;
850;SDS011;412;51.400;7.480;2023-05-02T05:11:39;23.70;;;16.13;;
850;SDS011;412;51.400;7.480;2023-05-02T05:14:07;19.77;;;16.00;;
850;SDS011;412;51.400;7.480;2023-05-02T05:16:33;20.83;;;15.20;;
850;SDS011;412;51.400;7.480;2023-05-02T05:18:59;19.90;;;16.00;;
850;SDS011;412;51.400;7.480;2023-05-02T05:21:25;18.47;;;15.70;;
850;SDS011;412;51.400;7.480;2023-05-02T05:23:51;18.83;;;15.10;;
850;SDS011;412;51.400;7.480;2023-05-02T05:26:17;20.03;;;15.90;;
850;SDS011;412;51.400;7.480;2023-05-02T05:28:43;18.20;;;14.90;;
850;SDS011;412;51.400;7.480;2023-05-02T05:31:11;17.60;;;15.10;;
850;SDS011;412;51.400;7.480;2023-05-02T05:33:41;17.80;;;14.40;;
850;SDS011;412;51.400;7.480;2023-05-02T05:36:07;21.83;;;16.10;;
850;SDS011;412;51.400;7.480;2023-05-02T05:38:35;24.23;;;15.23;;
850;SDS011;412;51.400;7.480;2023-05-02T05:41:01;21.50;;;15.93;;
850;SDS011;412;51.400;7.480;2023-05-02T05:43:28;18.23;;;15.77;;
850;SDS011;412;51.400;7.480;2023-05-02T05:45:54;20.37;;;15.77;;
850;SDS011;412;51.400;7.480;2023-05-02T05:48:20;21.03;;;16.93;;
850;SDS011;412;51.400;7.480;2023-05-02T05:50:46;18.60;;;14.73;;
850;SDS011;412;51.400;7.480;2023-05-02T05:53:12;17.50;;;15.23;;
850;SDS011;412;51.400;7.480;2023-05-02T05:55:38;18.37;;;15.47;;
850;SDS011;412;51.400;7.480;2023-05-02T05:58:05;17.27;;;14.10;;
850;SDS011;412;51.400;7.480;2023-05-02T06:00:37;15.80;;;11.63;;
850;SDS011;412;51.400;7.480;2023-05-02T06:03:03;11.27;;;9.40;;
850;SDS011;412;51.400;7.480;2023-05-02T06:05:29;9.83;;;8.70;;
850;SDS011;412;51.400;7.480;2023-05-02T06:07:56;8.80;;;7.90;;
850;SDS011;412;51.400;7.480;2023-05-02T06:10:22;7.10;;;6.50;;
850;SDS011;412;51.400;7.480;2023-05-02T06:12:52;7.93;;;7.23;;
850;SDS011;412;51.400;7.480;2023-05-02T06:15:17;7.53;;;6.83;;
850;SDS011;412;51.400;7.480;2023-05-02T06:17:43;7.90;;;7.20;;
850;SDS011;412;51.400;7.480;2023-05-02T06:20:09;7.43;;;6.73;;
850;SDS011;412;51.400;7.480;2023-05-02T06:22:35;7.93;;;7.20;;
850;SDS011;412;51.400;7.480;2023-05-02T06:25:01;8.60;;;6.90;;
850;SDS011;412;51.400;7.480;2023-05-02T06:27:29;7.30;;;6.70;;
850;SDS011;412;51.400;7.480;2023-05-02T06:29:54;7.97;;;6.43;;
850;SDS011;412;51.400;7.480;2023-05-02T06:32:20;7.73;;;7.03;;
850;SDS011;412;51.400;7.480;2023-05-02T06:34:46;7.47;;;6.87;;
850;SDS011;412;51.400;7.480;2023-05-02T06:37:12;7.33;;;6.73;;
850;SDS011;412;51.400;7.480;2023-05-02T06:39:37;7.57;;;6.93;;
850;SDS011;412;51.400;7.480;2023-05-02T06:42:03;9.13;;;7.40;;
850;SDS011;412;51.400;7.480;2023-05-02T06:44:29;7.50;;;6.63;;
850;SDS011;412;51.400;7.480;2023-05-02T06:46:55;7.30;;;6.60;;
850;SDS011;412;51.400;7.480;2023-05-02T06:49:21;7.40;;;6.90;;
850;SDS011;412;51.400;7.480;2023-05-02T06:51:47;6.90;;;6.40;;
850;SDS011;412;51.400;7.480;2023-05-02T06:54:12;6.00;;;5.40;;
850;SDS011;412;51.400;7.480;2023-05-02T06:56:41;7.07;;;5.87;;
850;SDS011;412;51.400;7.480;2023-05-02T06:59:07;6.30;;;5.70;;
850;SDS011;412;51.400;7.480;2023-05-02T07:01:33;6.47;;;5.87;;
850;SDS011;412;51.400;7.480;2023-05-02T07:04:00;6.70;;;6.00;;
850;SDS011;412;51.400;7.480;2023-05-02T07:06:27;6.70;;;6.20;;
850;SDS011;412;51.400;7.480;2023-05-02T07:08:53;5.90;;;5.50;;
850;SDS011;412;51.400;7.480;2023-05-02T07:11:19;7.37;;;6.37;;
850;SDS011;412;51.400;7.480;2023-05-02T07:13:47;7.70;;;7.00;;
850;SDS011;412;51.400;7.480;2023-05-02T07:16:13;6.80;;;6.30;;
850;SDS011;412;51.400;7.480;2023-05-02T07:18:39;6.20;;;5.80;;
850;SDS011;412;51.400;7.480;2023-05-02T07:21:06;7.00;;;6.37;;
850;SDS011;412;51.400;7.480;2023-05-02T07:23:32;9.60;;;6.43;;
850;SDS011;412;51.400;7.480;2023-05-02T07:25:58;7.30;;;6.60;;
850;SDS011;412;51.400;7.480;2023-05-02T07:28:24;7.00;;;6.40;;
850;SDS011;412;51.400;7.480;2023-05-02T07:30:50;10.43;;;9.33;;
850;SDS011;412;51.400;7.480;2023-05-02T07:33:16;6.90;;;6.30;;
850;SDS011;412;51.400;7.480;2023-05-02T07:35:42;8.33;;;7.63;;
850;SDS011;412;51.400;7.480;2023-05-02T07:38:08;8.37;;;6.50;;
850;SDS011;412;51.400;7.480;2023-05-02T07:40:33;7.27;;;6.60;;
850;SDS011;412;51.400;7.480;2023-05-02T07:42:59;7.17;;;6.53;;
850;SDS011;412;51.400;7.480;2023-05-02T07:45:26;7.70;;;7.20;;
850;SDS011;412;51.400;7.480;2023-05-02T07:47:52;7.43;;;6.67;;
850;SDS011;412;51.400;7.480;2023-05-02T07:50:17;7.37;;;6.77;;
850;SDS011;412;51.400;7.480;2023-05-02T07:52:43;6.97;;;6.47;;
850;SDS011;412;51.400;7.480;2023-05-02T07:55:09;7.17;;;6.50;;
850;SDS011;412;51.400;7.480;2023-05-02T07:57:34;6.70;;;6.20;;
850;SDS011;412;51.400;7.480;2023-05-02T08:00:00;7.80;;;7.20;;
850;SDS011;412;51.400;7.480;2023-05-02T08:02:26;7.57;;;6.93;;
850;SDS011;412;51.400;7.480;2023-05-02T08:04:52;6.63;;;6.10;;
850;SDS011;412;51.400;7.480;2023-05-02T08:07:18;10.97;;;6.80;;
850;SDS011;412;51.400;7.480;2023-05-02T08:09:44;7.50;;;6.40;;
850;SDS011;412;51.400;7.480;2023-05-02T08:12:10;6.80;;;6.30;;
850;SDS011;412;51.400;7.480;2023-05-02T08:14:36;7.63;;;7.03;;
850;SDS011;412;51.400;7.480;2023-05-02T08:17:01;8.70;;;7.90;;
850;SDS011;412;51.400;7.480;2023-05-02T08:19:27;10.43;;;7.80;;
850;SDS011;412;51.400;7.480;2023-05-02T08:21:53;8.20;;;7.50;;
850;SDS011;412;51.400;7.480;2023-05-02T08:24:19;6.97;;;6.47;;
850;SDS011;412;51.400;7.480;2023-05-02T08:26:45;10.10;;;9.10;;
850;SDS011;412;51.400;7.480;2023-05-02T08:29:11;11.63;;;10.53;;
850;SDS011;412;51.400;7.480;2023-05-02T08:31:37;10.33;;;9.50;;
850;SDS011;412;51.400;7.480;2023-05-02T08:34:04;11.20;;;10.30;;
850;SDS011;412;51.400;7.480;2023-05-02T08:36:30;9.57;;;8.97;;
850;SDS011;412;51.400;7.480;2023-05-02T08:38:56;9.87;;;9.10;;
850;SDS011;412;51.400;7.480;2023-05-02T08:41:22;6.70;;;6.20;;
850;SDS011;412;51.400;7.480;2023-05-02T08:43:48;6.37;;;5.97;;
850;SDS011;412;51.400;7.480;2023-05-02T08:46:15;6.70;;;6.20;;
850;SDS011;412;51.400;7.480;2023-05-02T08:48:42;7.73;;;5.20;;
850;SDS011;412;51.400;7.480;2023-05-02T08:51:10;6.30;;;5.80;;
850;SDS011;412;51.400;7.480;2023-05-02T08:53:38;6.43;;;5.93;;
850;SDS011;412;51.400;7.480;2023-05-02T08:56:07;8.13;;;7.33;;
850;SDS011;412;51.400;7.480;2023-05-02T08:58:34;7.07;;;6.33;;
850;SDS011;412;51.400;7.480;2023-05-02T09:01:02;5.87;;;5.40;;
850;SDS011;412;51.400;7.480;2023-05-02T09:03:34;6.90;;;6.30;;
850;SDS011;412;51.400;7.480;2023-05-02T09:06:07;7.40;;;6.23;;
850;SDS011;412;51.400;7.480;2023-05-02T09:08:35;6.90;;;6.30;;
850;SDS011;412;51.400;7.480;2023-05-02T09:11:02;7.47;;;6.77;;
850;SDS011;412;51.400;7.480;2023-05-02T09:13:38;7.20;;;6.57;;
850;SDS011;412;51.400;7.480;2023-05-02T09:16:09;9.63;;;7.53;;
850;SDS011;412;51.400;7.480;2023-05-02T09:18:36;7.57;;;6.93;;
850;SDS011;412;51.400;7.480;2023-05-02T09:21:06;7.83;;;7.03;;
850;SDS011;412;51.400;7.480;2023-05-02T09:26:24;7.93;;;6.87;;
850;SDS011;412;51.400;7.480;2023-05-02T09:28:55;9.10;;;8.40;;
850;SDS011;412;51.400;7.480;2023-05-02T09:31:22;9.30;;;8.50;;
850;SDS011;412;51.400;7.480;2023-05-02T09:36:41;11.60;;;10.10;;
850;SDS011;412;51.400;7.480;2023-05-02T09:39:12;11.33;;;9.70;;
850;SDS011;412;51.400;7.480;2023-05-02T09:41:46;8.80;;;8.00;;
850;SDS011;412;51.400;7.480;2023-05-02T09:44:15;8.83;;;7.70;;
850;SDS011;412;51.400;7.480;2023-05-02T09:46:46;9.03;;;8.07;;
850;SDS011;412;51.400;7.480;2023-05-02T09:49:12;7.93;;;7.33;;
850;SDS011;412;51.400;7.480;2023-05-02T09:51:39;9.13;;;8.23;;
850;SDS011;412;51.400;7.480;2023-05-02T09:54:07;10.40;;;8.60;;
850;SDS011;412;51.400;7.480;2023-05-02T09:59:21;10.07;;;7.70;;
850;SDS011;412;51.400;7.480;2023-05-02T10:01:56;7.70;;;7.00;;
850;SDS011;412;51.400;7.480;2023-05-02T10:04:24;7.97;;;7.20;;
850;SDS011;412;51.400;7.480;2023-05-02T10:06:51;9.20;;;7.80;;
850;SDS011;412;51.400;7.480;2023-05-02T10:09:18;9.10;;;8.20;;
850;SDS011;412;51.400;7.480;2023-05-02T10:11:50;8.70;;;7.80;;
850;SDS011;412;51.400;7.480;2023-05-02T10:14:20;8.90;;;8.10;;
850;SDS011;412;51.400;7.480;2023-05-02T10:16:51;9.37;;;8.47;;
850;SDS011;412;51.400;7.480;2023-05-02T10:19:40;11.57;;;9.10;;
850;SDS011;412;51.400;7.480;2023-05-02T10:22:18;8.77;;;7.80;;
850;SDS011;412;51.400;7.480;2023-05-02T10:24:45;7.67;;;6.73;;
850;SDS011;412;51.400;7.480;2023-05-02T10:27:16;9.33;;;7.70;;
850;SDS011;412;51.400;7.480;2023-05-02T10:29:43;8.33;;;7.53;;
850;SDS011;412;51.400;7.480;2023-05-02T10:32:10;8.43;;;7.43;;
850;SDS011;412;51.400;7.480;2023-05-02T10:34:36;10.17;;;8.17;;
850;SDS011;412;51.400;7.480;2023-05-02T10:37:04;8.30;;;7.50;;
850;SDS011;412;51.400;7.480;2023-05-02T10:39:30;7.03;;;6.53;;
850;SDS011;412;51.400;7.480;2023-05-02T10:41:57;7.07;;;6.53;;
850;SDS011;412;51.400;7.480;2023-05-02T10:44:35;7.00;;;6.40;;
850;SDS011;412;51.400;7.480;2023-05-02T10:49:49;7.20;;;6.50;;
850;SDS011;412;51.400;7.480;2023-05-02T11:00:27;7.87;;;7.07;;
850;SDS011;412;51.400;7.480;2023-05-02T11:02:57;10.00;;;8.40;;
850;SDS011;412;51.400;7.480;2023-05-02T11:05:24;7.60;;;6.90;;
850;SDS011;412;51.400;7.480;2023-05-02T11:10:44;6.73;;;5.67;;
850;SDS011;412;51.400;7.480;2023-05-02T11:13:10;6.27;;;5.67;;
850;SDS011;412;51.400;7.480;2023-05-02T11:20:36;5.87;;;5.37;;
850;SDS011;412;51.400;7.480;2023-05-02T11:25:49;8.00;;;5.40;;
850;SDS011;412;51.400;7.480;2023-05-02T11:31:00;7.17;;;5.37;;
850;SDS011;412;51.400;7.480;2023-05-02T11:33:27;6.17;;;5.60;;
850;SDS011;412;51.400;7.480;2023-05-02T11:35:53;6.33;;;5.80;;
850;SDS011;412;51.400;7.480;2023-05-02T11:38:21;8.20;;;7.03;;
850;SDS011;412;51.400;7.480;2023-05-02T11:40:56;10.60;;;8.40;;
850;SDS011;412;51.400;7.480;2023-05-02T11:43:24;6.93;;;6.33;;
850;SDS011;412;51.400;7.480;2023-05-02T11:45:54;10.60;;;6.07;;
850;SDS011;412;51.400;7.480;2023-05-02T11:48:21;6.57;;;5.97;;
850;SDS011;412;51.400;7.480;2023-05-02T11:50:52;5.90;;;5.27;;
850;SDS011;412;51.400;7.480;2023-05-02T11:53:20;7.53;;;6.57;;
850;SDS011;412;51.400;7.480;2023-05-02T11:55:52;5.80;;;5.20;;
850;SDS011;412;51.400;7.480;2023-05-02T11:58:23;11.50;;;7.50;;
850;SDS011;412;51.400;7.480;2023-05-02T12:00:51;7.17;;;6.40;;
850;SDS011;412;51.400;7.480;2023-05-02T12:03:30;6.70;;;6.10;;
850;SDS011;412;51.400;7.480;2023-05-02T12:06:06;10.17;;;6.13;;
850;SDS011;412;51.400;7.480;2023-05-02T12:08:35;8.60;;;6.77;;
850;SDS011;412;51.400;7.480;2023-05-02T12:11:01;8.20;;;6.03;;
850;SDS011;412;51.400;7.480;2023-05-02T12:13:27;7.80;;;6.53;;
850;SDS011;412;51.400;7.480;2023-05-02T12:15:54;7.17;;;6.47;;
850;SDS011;412;51.400;7.480;2023-05-02T12:18:21;7.00;;;6.30;;
850;SDS011;412;51.400;7.480;2023-05-02T12:20:48;6.57;;;5.97;;
850;SDS011;412;51.400;7.480;2023-05-02T12:23:16;8.13;;;6.33;;
850;SDS011;412;51.400;7.480;2023-05-02T12:25:43;8.57;;;7.90;;
850;SDS011;412;51.400;7.480;2023-05-02T12:28:09;7.30;;;6.20;;
850;SDS011;412;51.400;7.480;2023-05-02T12:30:36;6.90;;;5.97;;
850;SDS011;412;51.400;7.480;2023-05-02T12:33:04;7.30;;;6.30;;
850;SDS011;412;51.400;7.480;2023-05-02T12:35:30;8.70;;;7.90;;
850;SDS011;412;51.400;7.480;2023-05-02T12:38:10;10.43;;;7.37;;
850;SDS011;412;51.400;7.480;2023-05-02T12:40:37;8.40;;;6.47;;
850;SDS011;412;51.400;7.480;2023-05-02T12:43:04;7.70;;;6.77;;
850;SDS011;412;51.400;7.480;2023-05-02T12:45:32;7.27;;;6.50;;
850;SDS011;412;51.400;7.480;2023-05-02T12:48:02;6.60;;;5.80;;
850;SDS011;412;51.400;7.480;2023-05-02T12:50:42;7.00;;;6.40;;
850;SDS011;412;51.400;7.480;2023-05-02T12:53:08;7.33;;;6.63;;
850;SDS011;412;51.400;7.480;2023-05-02T12:55:34;8.90;;;8.00;;
850;SDS011;412;51.400;7.480;2023-05-02T12:58:05;7.30;;;6.60;;
850;SDS011;412;51.400;7.480;2023-05-02T13:00:33;6.47;;;5.87;;
850;SDS011;412;51.400;7.480;2023-05-02T13:03:00;7.40;;;6.70;;
850;SDS011;412;51.400;7.480;2023-05-02T13:05:26;9.20;;;7.37;;
850;SDS011;412;51.400;7.480;2023-05-02T13:07:52;7.00;;;6.40;;
850;SDS011;412;51.400;7.480;2023-05-02T13:10:21;7.10;;;6.50;;
850;SDS011;412;51.400;7.480;2023-05-02T13:12:48;7.07;;;6.47;;
850;SDS011;412;51.400;7.480;2023-05-02T13:15:14;7.93;;;7.13;;
850;SDS011;412;51.400;7.480;2023-05-02T13:17:41;7.77;;;7.10;;
850;SDS011;412;51.400;7.480;2023-05-02T13:20:07;8.20;;;7.50;;
850;SDS011;412;51.400;7.480;2023-05-02T13:22:33;7.30;;;6.60;;
850;SDS011;412;51.400;7.480;2023-05-02T13:25:00;7.27;;;6.47;;
850;SDS011;412;51.400;7.480;2023-05-02T13:27:26;8.87;;;6.27;;
850;SDS011;412;51.400;7.480;2023-05-02T13:29:52;6.10;;;5.50;;
850;SDS011;412;51.400;7.480;2023-05-02T13:32:18;6.20;;;5.70;;
850;SDS011;412;51.400;7.480;2023-05-02T13:34:43;5.60;;;5.13;;
850;SDS011;412;51.400;7.480;2023-05-02T13:37:10;5.83;;;5.33;;
850;SDS011;412;51.400;7.480;2023-05-02T13:39:35;5.67;;;5.13;;
850;SDS011;412;51.400;7.480;2023-05-02T13:42:01;5.93;;;5.07;;
850;SDS011;412;51.400;7.480;2023-05-02T13:44:28;5.37;;;4.57;;
850;SDS011;412;51.400;7.480;2023-05-02T13:46:54;5.50;;;5.10;;
850;SDS011;412;51.400;7.480;2023-05-02T13:49:20;6.57;;;5.00;;
850;SDS011;412;51.400;7.480;2023-05-02T13:51:46;4.97;;;4.50;;
850;SDS011;412;51.400;7.480;2023-05-02T13:54:12;5.53;;;4.70;;
850;SDS011;412;51.400;7.480;2023-05-02T13:56:39;6.53;;;5.40;;
850;SDS011;412;51.400;7.480;2023-05-02T13:59:06;6.30;;;4.97;;
850;SDS011;412;51.400;7.480;2023-05-02T14:01:32;5.07;;;4.63;;
850;SDS011;412;51.400;7.480;2023-05-02T14:03:58;8.10;;;5.80;;
850;SDS011;412;51.400;7.480;2023-05-02T14:06:25;8.93;;;5.67;;
850;SDS011;412;51.400;7.480;2023-05-02T14:08:50;5.83;;;5.33;;
850;SDS011;412;51.400;7.480;2023-05-02T14:11:16;5.03;;;4.63;;
850;SDS011;412;51.400;7.480;2023-05-02T14:13:42;5.90;;;5.47;;
850;SDS011;412;51.400;7.480;2023-05-02T14:16:08;6.30;;;5.80;;
850;SDS011;412;51.400;7.480;2023-05-02T14:18:34;6.60;;;6.10;;
850;SDS011;412;51.400;7.480;2023-05-02T14:21:00;6.20;;;5.60;;
850;SDS011;412;51.400;7.480;2023-05-02T14:23:27;6.63;;;5.93;;
850;SDS011;412;51.400;7.480;2023-05-02T14:25:53;11.83;;;7.67;;
850;SDS011;412;51.400;7.480;2023-05-02T14:28:19;6.17;;;5.47;;
850;SDS011;412;51.400;7.480;2023-05-02T14:30:49;6.00;;;5.50;;
850;SDS011;412;51.400;7.480;2023-05-02T14:33:15;12.47;;;8.27;;
850;SDS011;412;51.400;7.480;2023-05-02T14:35:41;8.73;;;7.70;;
850;SDS011;412;51.400;7.480;2023-05-02T14:38:07;8.00;;;5.60;;
850;SDS011;412;51.400;7.480;2023-05-02T14:40:33;6.77;;;6.07;;
850;SDS011;412;51.400;7.480;2023-05-02T14:42:59;7.20;;;6.60;;
850;SDS011;412;51.400;7.480;2023-05-02T14:45:26;7.23;;;6.47;;
850;SDS011;412;51.400;7.480;2023-05-02T14:47:51;8.80;;;7.10;;
850;SDS011;412;51.400;7.480;2023-05-02T14:50:17;95.27;;;64.07;;
850;SDS011;412;51.400;7.480;2023-05-02T14:52:43;196.47;;;144.53;;
850;SDS011;412;51.400;7.480;2023-05-02T14:55:11;37.47;;;31.13;;
850;SDS011;412;51.400;7.480;2023-05-02T14:57:37;9.80;;;7.80;;
850;SDS011;412;51.400;7.480;2023-05-02T15:00:03;7.57;;;6.87;;
850;SDS011;412;51.400;7.480;2023-05-02T15:02:33;7.43;;;6.50;;
850;SDS011;412;51.400;7.480;2023-05-02T15:05:00;9.80;;;6.60;;
850;SDS011;412;51.400;7.480;2023-05-02T15:07:36;8.80;;;6.07;;
850;SDS011;412;51.400;7.480;2023-05-02T15:10:02;8.00;;;5.80;;
850;SDS011;412;51.400;7.480;2023-05-02T15:12:28;8.60;;;6.40;;
850;SDS011;412;51.400;7.480;2023-05-02T15:14:55;7.03;;;6.43;;
850;SDS011;412;51.400;7.480;2023-05-02T15:17:20;8.73;;;6.73;;
850;SDS011;412;51.400;7.480;2023-05-02T15:19:46;7.70;;;7.00;;
850;SDS011;412;51.400;7.480;2023-05-02T15:22:12;7.27;;;6.70;;
850;SDS011;412;51.400;7.480;2023-05-02T15:24:39;7.83;;;6.80;;
850;SDS011;412;51.400;7.480;2023-05-02T15:27:05;9.17;;;6.93;;
850;SDS011;412;51.400;7.480;2023-05-02T15:29:33;8.60;;;6.63;;
850;SDS011;412;51.400;7.480;2023-05-02T15:31:59;7.53;;;6.67;;
850;SDS011;412;51.400;7.480;2023-05-02T15:34:25;8.30;;;6.90;;
850;SDS011;412;51.400;7.480;2023-05-02T15:36:51;7.50;;;6.80;;
850;SDS011;412;51.400;7.480;2023-05-02T15:39:17;9.03;;;7.10;;
850;SDS011;412;51.400;7.480;2023-05-02T15:41:43;7.90;;;7.13;;
850;SDS011;412;51.400;7.480;2023-05-02T15:44:12;7.30;;;6.70;;
850;SDS011;412;51.400;7.480;2023-05-02T15:46:38;8.03;;;7.23;;
850;SDS011;412;51.400;7.480;2023-05-02T15:49:06;8.37;;;7.57;;
850;SDS011;412;51.400;7.480;2023-05-02T15:51:32;13.23;;;9.57;;
850;SDS011;412;51.400;7.480;2023-05-02T15:53:57;9.90;;;8.90;;
850;SDS011;412;51.400;7.480;2023-05-02T15:56:23;10.97;;;9.23;;
850;SDS011;412;51.400;7.480;2023-05-02T15:58:49;15.07;;;9.50;;
850;SDS011;412;51.400;7.480;2023-05-02T16:01:15;14.73;;;11.30;;
850;SDS011;412;51.400;7.480;2023-05-02T16:03:41;12.60;;;9.60;;
850;SDS011;412;51.400;7.480;2023-05-02T16:06:06;8.43;;;7.67;;
850;SDS011;412;51.400;7.480;2023-05-02T16:08:32;11.53;;;10.37;;
850;SDS011;412;51.400;7.480;2023-05-02T16:10:58;10.37;;;8.80;;
850;SDS011;412;51.400;7.480;2023-05-02T16:13:26;9.97;;;8.70;;
850;SDS011;412;51.400;7.480;2023-05-02T16:15:52;9.77;;;8.77;;
850;SDS011;412;51.400;7.480;2023-05-02T16:18:18;10.07;;;9.17;;
850;SDS011;412;51.400;7.480;2023-05-02T16:20:43;14.40;;;8.57;;
850;SDS011;412;51.400;7.480;2023-05-02T16:23:11;8.60;;;7.80;;